This is the latest recevied weather packets stored in our database for station/object YO6LRV-3. If no packets are shown the sender has not sent any weather packets the latest 10 day(s).
| Time | Temp. | Humidity | Pressure | Rain* | Wind** | Luminosity | Snow |
|---|---|---|---|---|---|---|---|
| 1777706460 | 8.89° C | 53% | 1022 hPa | - | - | - | - |
| 1777705562 | 8.33° C | 51% | 1022 hPa | - | - | - | - |
| 1777704662 | 7.78° C | 52% | 1021.8 hPa | - | - | - | - |
| 1777703762 | 7.78° C | 51% | 1022 hPa | - | - | - | - |
| 1777702862 | 7.22° C | 54% | 1021.9 hPa | - | - | - | - |
| 1777701962 | 7.22° C | 53% | 1021.8 hPa | - | - | - | - |
| 1777701062 | 7.22° C | 52% | 1022 hPa | - | - | - | - |
| 1777700161 | 6.67° C | 52% | 1021.9 hPa | - | - | - | - |
| 1777699261 | 6.67° C | 51% | 1021.8 hPa | - | - | - | - |
| 1777698361 | 6.67° C | 51% | 1021.7 hPa | - | - | - | - |
| 1777697461 | 6.11° C | 50% | 1021.7 hPa | - | - | - | - |
| 1777695661 | 6.11° C | 48% | 1021.6 hPa | - | - | - | - |
| 1777694761 | 6.11° C | 48% | 1021.4 hPa | - | - | - | - |
| 1777692960 | 6.11° C | 48% | 1021.2 hPa | - | - | - | - |
| 1777692060 | 6.67° C | 49% | 1021.2 hPa | - | - | - | - |
| 1777690260 | 6.67° C | 48% | 1021.1 hPa | - | - | - | - |
| 1777689360 | 6.67° C | 48% | 1021.1 hPa | - | - | - | - |
| 1777688460 | 6.67° C | 49% | 1021.1 hPa | - | - | - | - |
| 1777687560 | 6.67° C | 48% | 1021.2 hPa | - | - | - | - |
| 1777674060 | 8.89° C | 42% | 1021.7 hPa | - | - | - | - |
| 1777673160 | 8.89° C | 42% | 1021.9 hPa | - | - | - | - |
| 1777671360 | 8.89° C | 42% | 1022 hPa | - | - | - | - |
| 1777670460 | 9.44° C | 41% | 1022 hPa | - | - | - | - |
| 1777669559 | 9.44° C | 41% | 1021.9 hPa | - | - | - | - |
| 1777668659 | 9.44° C | 41% | 1021.7 hPa | - | - | - | - |
* Rain since midnight (hover to see other rain measurements)
** Current wind speed in m/s (hover to see current wind gust speed)